KGLR/GLR METAR and TAF weather

Enter ICAO airport designator
Station Type Date Time Source
KGLR METAR 2019/05/25 10:02 UTC NOAA

KGLR 251002Z AUTO 16004KT 4SM VCTS -RA BR FEW024 BKN038 OVC070 13/13 A2986 RMK AO2 LTG DSNT E-S P0000 T01280128


Station Type Date Time Source
KGLR Decoded METAR 2019/05/25 10:02 UTC NOAA

GAYLORD REGIONAL AIRPORT, MI, United States (KGLR) 45-01N 84-41W 407M
May 25, 2019 - 06:02 AM EDT / 2019.05.25 1002 UTC
Wind: from the SSE (160 degrees) at 5 MPH (4 KT):0
Visibility: 4 mile(s):0
Sky conditions: overcast
Weather: thunder in the vicinity; light rain; mist; Lightning observed
Precipitation last hour: A trace
Temperature: 55.0 F (12.8 C)
Dew Point: 55.0 F (12.8 C)
Relative Humidity: 100%
Pressure (altimeter): 29.86 in. Hg (1011 hPa)
ob: KGLR 251002Z AUTO 16004KT 4SM VCTS -RA BR FEW024 BKN038 OVC070 13/13 A2986 RMK AO2 LTG DSNT E-S P0000 T01280128
cycle: 10

Station Type Date Time Source
KGLR TAF UTC NOAA

Error!

Example: see airport list